Time;durP1;ratioP1;P1;durP2;ratioP2;P2;SDS_P1;SDS_P2;PMS_P1;PMS_P2;Temp;Humidity;BMP_temperature;BMP_pressure;BME280_temperature;BME280_humidity;BME280_pressure;Samples;Min_cycle;Max_cycle;Signal;HPM_P1;HPM_P2
2022/12/01 00:01:20;;;;;;;35.30;20.75;;;5.70;99.90;;;4.86;100.00;98134.34;5041266;28;20076;-71
2022/12/01 00:03:47;;;;;;;26.25;18.10;;;5.70;99.90;;;4.87;100.00;98125.72;5040596;28;20179;-71
2022/12/01 00:06:19;;;;;;;30.45;17.73;;;5.70;99.90;;;4.76;100.00;98123.25;5043259;28;20057;-70
2022/12/01 00:11:37;;;;;;;28.33;16.98;;;5.50;99.90;;;4.54;100.00;98137.22;5051863;28;20303;-70
2022/12/01 00:14:04;;;;;;;25.90;16.58;;;5.40;99.90;;;4.53;100.00;98132.94;5052468;28;20487;-71
2022/12/01 00:16:33;;;;;;;24.98;15.18;;;5.40;99.90;;;4.58;100.00;98136.31;5039290;28;20470;-70
2022/12/01 00:19:00;;;;;;;26.08;15.80;;;5.40;99.90;;;4.55;100.00;98131.22;5050136;28;20074;-71
2022/12/01 00:21:27;;;;;;;23.13;14.85;;;5.40;99.90;;;4.61;100.00;98137.16;5040322;28;20053;-70
2022/12/01 00:23:56;;;;;;;18.27;13.05;;;5.50;99.90;;;4.71;100.00;98134.47;5038021;28;20056;-71
2022/12/01 00:26:24;;;;;;;24.58;14.30;;;5.50;99.90;;;4.54;100.00;98140.66;5037372;28;20542;-71
2022/12/01 00:28:55;;;;;;;23.17;14.23;;;5.40;99.90;;;4.52;100.00;98142.38;5039250;28;20052;-70
2022/12/01 00:31:23;;;;;;;20.38;12.95;;;5.40;99.90;;;4.54;100.00;98135.50;5038091;28;20103;-71
2022/12/01 00:33:50;;;;;;;20.00;13.27;;;5.50;99.90;;;4.58;100.00;98144.91;5040550;28;20103;-71
2022/12/01 00:36:17;;;;;;;19.17;12.07;;;5.40;99.90;;;4.55;100.00;98136.34;5041482;28;20052;-70
2022/12/01 00:38:45;;;;;;;21.05;13.35;;;5.40;99.90;;;4.60;100.00;98143.13;5038932;28;20056;-71
2022/12/01 00:41:12;;;;;;;23.05;14.10;;;5.40;99.90;;;4.55;100.00;98132.06;5039470;28;20055;-71
2022/12/01 00:43:40;;;;;;;23.75;13.27;;;5.50;99.90;;;4.52;100.00;98136.38;5039140;28;20049;-71
2022/12/01 00:46:07;;;;;;;21.85;12.55;;;5.40;99.90;;;4.50;100.00;98138.13;5041773;28;20052;-71
2022/12/01 00:48:34;;;;;;;19.27;12.65;;;5.40;99.90;;;4.58;100.00;98138.88;5038921;28;20080;-70
2022/12/01 00:51:01;;;;;;;18.27;11.52;;;5.50;99.90;;;4.48;100.00;98138.13;5039138;28;20037;-71
2022/12/01 00:53:28;;;;;;;19.10;12.50;;;5.50;99.90;;;4.63;100.00;98141.41;5038209;28;20045;-70
2022/12/01 00:55:55;;;;;;;19.20;12.68;;;5.50;99.90;;;4.62;100.00;98130.28;5040118;28;20065;-71
2022/12/01 00:58:23;;;;;;;22.35;13.27;;;5.50;99.90;;;4.57;100.00;98134.63;5041208;28;20368;-71
2022/12/01 01:00:58;;;;;;;22.67;14.05;;;5.50;99.90;;;4.63;100.00;98142.28;5040734;28;20392;-71
2022/12/01 01:03:28;;;;;;;25.02;14.55;;;5.50;99.90;;;4.51;100.00;98137.25;5039287;28;20056;-70
2022/12/01 01:05:55;;;;;;;19.73;12.93;;;5.50;99.90;;;4.52;100.00;98138.97;5038774;28;20045;-71
2022/12/01 01:08:22;;;;;;;19.85;12.70;;;5.50;99.90;;;4.57;100.00;98144.91;5043314;28;20041;-71
2022/12/01 01:10:49;;;;;;;18.05;11.60;;;5.50;99.90;;;4.65;100.00;98140.53;5046265;28;20037;-71
2022/12/01 01:13:17;;;;;;;17.75;13.00;;;5.50;99.90;;;4.58;100.00;98149.16;5046853;28;20052;-71
2022/12/01 01:15:44;;;;;;;20.02;12.68;;;5.50;99.90;;;4.51;100.00;98140.66;5042526;28;20049;-70
2022/12/01 01:18:11;;;;;;;18.23;12.35;;;5.40;99.90;;;4.57;100.00;98140.59;5045377;28;20080;-70
2022/12/01 01:20:38;;;;;;;17.70;12.10;;;5.50;99.90;;;4.70;100.00;98141.34;5042215;28;20053;-70
2022/12/01 01:23:05;;;;;;;20.90;13.63;;;5.50;99.90;;;4.61;100.00;98142.28;5041098;28;20497;-70
2022/12/01 01:25:32;;;;;;;19.67;12.25;;;5.50;99.90;;;4.57;100.00;98143.19;5042853;28;20055;-70
2022/12/01 01:27:59;;;;;;;19.30;11.80;;;5.50;99.90;;;4.66;100.00;98154.25;5044385;28;20628;-71
2022/12/01 01:30:26;;;;;;;23.48;14.82;;;5.50;99.90;;;4.63;100.00;98146.56;5042426;28;20052;-71
2022/12/01 01:32:53;;;;;;;21.42;13.15;;;5.50;99.90;;;4.64;100.00;98158.56;5043591;28;20087;-71
2022/12/01 01:35:21;;;;;;;22.83;14.20;;;5.60;99.90;;;4.63;100.00;98154.25;5042557;28;20181;-70
2022/12/01 01:37:49;;;;;;;17.77;11.73;;;5.60;99.90;;;4.75;100.00;98156.72;5039241;28;20506;-70
2022/12/01 01:40:17;;;;;;;18.25;12.65;;;5.60;99.90;;;4.64;100.00;98167.13;5041902;28;20057;-71
2022/12/01 01:42:44;;;;;;;25.10;14.52;;;5.60;99.90;;;4.60;100.00;98163.72;5043629;28;20056;-70
2022/12/01 01:45:28;;;;;;;18.58;13.27;;;5.60;99.90;;;4.60;100.00;98173.16;5043658;28;20503;-71
2022/12/01 01:47:58;;;;;;;22.42;13.25;;;5.50;99.90;;;4.46;100.00;98175.00;5062596;28;20063;-70
2022/12/01 01:50:27;;;;;;;25.42;14.32;;;5.50;99.90;;;4.58;100.00;98167.16;5043945;28;20060;-72
2022/12/01 01:53:02;;;;;;;20.17;13.20;;;5.40;99.90;;;4.52;100.00;98170.66;5042681;28;20040;-71
2022/12/01 01:55:33;;;;;;;23.27;14.30;;;5.40;99.90;;;4.53;100.00;98174.06;5040635;28;20064;-70
2022/12/01 01:58:05;;;;;;;26.67;14.30;;;5.40;99.90;;;4.51;100.00;98176.66;5054526;28;20049;-71
2022/12/01 02:00:32;;;;;;;26.05;14.85;;;5.40;99.90;;;4.51;100.00;98175.81;5042175;28;20051;-71
2022/12/01 02:02:59;;;;;;;24.13;15.20;;;5.50;99.90;;;4.54;100.00;98175.78;5041612;28;20045;-70
2022/12/01 02:05:31;;;;;;;27.50;15.77;;;5.40;99.90;;;4.49;100.00;98178.38;5043831;28;20132;-71
2022/12/01 02:08:01;;;;;;;29.70;18.83;;;5.40;99.90;;;4.43;100.00;98175.03;5044015;28;20066;-71
2022/12/01 02:10:40;;;;;;;21.70;14.77;;;5.30;99.90;;;4.33;100.00;98176.81;5043328;28;20084;-72
2022/12/01 02:13:28;;;;;;;27.50;16.67;;;5.40;99.90;;;4.40;100.00;98175.88;5041402;28;20052;-72
2022/12/01 02:16:19;;;;;;;27.27;17.17;;;5.30;99.90;;;4.37;100.00;98171.63;5041633;28;20052;-71
2022/12/01 02:19:08;;;;;;;24.50;15.10;;;5.30;99.90;;;4.32;100.00;98170.81;5050413;28;20044;-71
2022/12/01 02:21:50;;;;;;;30.88;17.63;;;5.30;99.90;;;4.38;100.00;98172.50;5038763;28;20056;-71
2022/12/01 02:24:44;;;;;;;28.55;17.92;;;5.30;99.90;;;4.37;100.00;98171.63;5040160;28;20140;-71
2022/12/01 02:27:16;;;;;;;26.13;16.40;;;5.20;99.90;;;4.32;100.00;98175.13;5042163;28;20045;-71
2022/12/01 02:30:02;;;;;;;26.70;16.02;;;5.20;99.90;;;4.44;100.00;98169.00;5041216;28;20060;-70
2022/12/01 02:32:34;;;;;;;26.17;16.05;;;5.30;99.90;;;4.35;100.00;98173.34;5042036;28;20045;-71
2022/12/01 02:35:36;;;;;;;26.58;15.23;;;5.30;99.90;;;4.49;100.00;98167.25;5043782;28;20167;-71
2022/12/01 02:38:12;;;;;;;22.77;14.25;;;5.30;99.90;;;4.34;100.00;98166.53;5045336;28;20049;-72
2022/12/01 02:41:19;;;;;;;21.98;13.57;;;5.30;99.90;;;4.39;100.00;98167.31;5038099;28;20052;-72
2022/12/01 02:44:09;;;;;;;19.77;12.50;;;5.30;99.90;;;4.41;100.00;98169.91;5038966;28;20049;-71
2022/12/01 02:46:46;;;;;;;19.70;13.07;;;5.30;99.90;;;4.38;100.00;98168.22;5038150;28;20482;-72
2022/12/01 02:49:19;;;;;;;22.65;13.32;;;5.30;99.90;;;4.32;100.00;98168.25;5043785;28;20037;-72
2022/12/01 02:51:49;;;;;;;18.10;11.93;;;5.20;99.90;;;4.44;100.00;98175.00;5041461;28;20049;-71
2022/12/01 02:54:18;;;;;;;17.42;11.77;;;5.30;99.90;;;4.40;100.00;98168.16;5045772;28;20052;-71
2022/12/01 02:56:45;;;;;;;19.73;12.93;;;5.20;99.90;;;4.39;100.00;98162.19;5046133;28;20065;-72
2022/12/01 02:59:14;;;;;;;20.05;12.60;;;5.30;99.90;;;4.50;100.00;98171.53;5038659;28;20049;-71
2022/12/01 03:02:17;;;;;;;17.42;11.00;;;5.30;99.90;;;4.51;100.00;98174.06;5042139;28;20049;-72
2022/12/01 03:05:09;;;;;;;14.32;8.85;;;5.30;99.90;;;4.66;100.00;98169.69;5002799;28;1146140;-72
2022/12/01 03:08:32;;;;;;;14.57;9.93;;;5.40;99.90;;;4.55;100.00;98164.63;5043145;28;20056;-72
2022/12/01 03:11:00;;;;;;;20.15;11.35;;;5.40;99.90;;;4.50;100.00;98166.41;5040301;28;20057;-72
2022/12/01 03:13:54;;;;;;;15.25;9.40;;;5.40;99.90;;;4.46;100.00;98162.16;5042856;28;20044;-72
2022/12/01 03:16:52;;;;;;;17.48;11.52;;;5.30;99.90;;;4.30;100.00;98166.56;5047749;28;20502;-72
2022/12/01 03:19:47;;;;;;;16.88;10.95;;;5.30;99.90;;;4.35;100.00;98167.38;5044018;28;20717;-72
2022/12/01 03:22:24;;;;;;;13.65;8.80;;;5.20;99.90;;;4.42;100.00;98163.03;5038718;28;20136;-72
2022/12/01 03:24:54;;;;;;;15.77;10.15;;;5.30;99.90;;;4.46;100.00;98165.56;5037200;28;20385;-72
2022/12/01 03:27:27;;;;;;;14.10;8.98;;;5.30;99.90;;;4.54;100.00;98168.09;5043025;28;20051;-72
2022/12/01 03:29:58;;;;;;;14.07;9.82;;;5.40;99.90;;;4.46;100.00;98162.16;5040061;28;20063;-72
2022/12/01 03:32:48;;;;;;;14.10;9.00;;;5.40;99.90;;;4.40;100.00;98166.47;5041950;28;20057;-72
2022/12/01 03:35:32;;;;;;;18.70;10.18;;;5.40;99.90;;;4.30;100.00;98161.41;5035729;28;20527;-72
2022/12/01 03:38:12;;;;;;;16.50;9.55;;;5.30;99.90;;;4.31;100.00;98157.97;5043614;28;20059;-71
2022/12/01 03:40:40;;;;;;;16.10;9.93;;;5.30;99.90;;;4.31;100.00;98166.56;5041664;28;20053;-71
2022/12/01 03:43:12;;;;;;;17.90;11.13;;;5.20;99.90;;;4.40;100.00;98163.03;5041675;28;20044;-72
2022/12/01 03:45:53;;;;;;;15.60;9.07;;;5.20;99.90;;;4.47;100.00;98167.28;5057582;28;20055;-72
2022/12/01 03:48:22;;;;;;;11.65;8.00;;;5.30;99.90;;;4.43;100.00;98173.31;5043571;28;20506;-72
2022/12/01 03:51:09;;;;;;;15.65;9.30;;;5.30;99.90;;;4.32;100.00;98163.09;5046188;28;22070;-71
2022/12/01 03:53:51;;;;;;;20.27;11.38;;;5.20;99.90;;;4.22;100.00;98164.06;5042768;28;20415;-71
2022/12/01 03:56:22;;;;;;;13.18;8.80;;;5.10;99.90;;;4.14;100.00;98165.81;5041824;28;20053;-71
2022/12/01 03:58:54;;;;;;;12.60;8.82;;;5.10;99.90;;;4.14;100.00;98164.09;5043627;28;20060;-71
2022/12/01 04:01:21;;;;;;;14.07;9.00;;;5.10;99.90;;;3.96;100.00;98164.22;5041826;28;20045;-71
2022/12/01 04:03:48;;;;;;;13.43;8.10;;;4.90;99.90;;;3.95;100.00;98170.25;5039718;28;20088;-71
2022/12/01 04:06:15;;;;;;;14.65;8.68;;;4.80;99.90;;;4.00;100.00;98172.78;5041726;28;20056;-72
2022/12/01 04:08:42;;;;;;;12.55;8.48;;;4.90;99.90;;;3.91;100.00;98169.41;5043051;28;20057;-71
2022/12/01 04:13:58;;;;;;;14.07;8.73;;;4.80;99.90;;;3.88;100.00;98189.13;5044739;28;20053;-71
2022/12/01 04:16:25;;;;;;;12.88;7.20;;;4.80;99.90;;;3.78;100.00;98178.88;5043806;28;20059;-71
2022/12/01 04:18:52;;;;;;;13.57;8.05;;;4.80;99.90;;;3.87;100.00;98183.13;5043022;28;20053;-71
2022/12/01 04:21:19;;;;;;;16.55;9.40;;;4.70;99.90;;;3.82;100.00;98187.44;5045425;28;20362;-72
2022/12/01 04:24:01;;;;;;;15.63;9.55;;;4.70;99.90;;;3.81;100.00;98185.75;5043418;28;20045;-72
2022/12/01 04:26:33;;;;;;;13.73;8.45;;;4.70;99.90;;;3.77;100.00;98194.31;5042812;28;20051;-71
2022/12/01 04:29:02;;;;;;;16.45;9.57;;;4.70;99.90;;;3.75;100.00;98181.47;5045085;28;20049;-72
2022/12/01 04:31:30;;;;;;;15.40;9.52;;;4.70;99.90;;;3.72;100.00;98188.38;5058410;28;20487;-71
2022/12/01 04:33:58;;;;;;;14.52;9.45;;;4.70;99.90;;;3.73;100.00;98185.78;5041492;28;20048;-71
2022/12/01 04:36:26;;;;;;;15.25;9.52;;;4.70;99.90;;;3.69;100.00;98194.34;5055883;28;20482;-71
2022/12/01 04:38:53;;;;;;;20.63;9.95;;;4.60;99.90;;;3.66;100.00;98199.50;5043310;28;20060;-71
2022/12/01 04:41:20;;;;;;;17.80;10.38;;;4.60;99.90;;;3.63;100.00;98189.25;5045649;28;20052;-71
2022/12/01 04:43:47;;;;;;;17.70;10.68;;;4.60;99.90;;;3.70;100.00;98193.50;5042464;28;20045;-71
2022/12/01 04:46:14;;;;;;;15.23;9.70;;;4.60;99.90;;;3.62;100.00;98194.41;5044646;28;20048;-71
2022/12/01 04:48:42;;;;;;;18.88;10.50;;;4.60;99.90;;;3.50;100.00;98201.28;5042564;28;20045;-71
2022/12/01 04:51:09;;;;;;;15.25;9.00;;;4.40;99.90;;;3.56;100.00;98205.56;5045731;28;20612;-70
2022/12/01 04:53:36;;;;;;;20.70;11.18;;;4.50;99.90;;;3.52;100.00;98201.28;5046237;28;20108;-72
2022/12/01 04:56:04;;;;;;;19.10;10.63;;;4.50;99.90;;;3.53;100.00;98203.00;5046135;28;20052;-70
2022/12/01 04:58:32;;;;;;;18.95;11.13;;;4.50;99.90;;;3.53;100.00;98201.25;5047700;28;20052;-71
2022/12/01 05:01:09;;;;;;;18.90;11.13;;;4.40;99.90;;;3.62;100.00;98208.06;5048190;28;20061;-71
2022/12/01 05:03:38;;;;;;;20.70;11.40;;;4.50;99.90;;;3.45;100.00;98199.63;5039294;28;20135;-71
2022/12/01 05:06:14;;;;;;;19.60;11.48;;;4.40;99.90;;;3.41;100.00;98208.19;5042316;28;20057;-70
2022/12/01 05:08:41;;;;;;;16.27;9.77;;;4.30;99.90;;;3.51;100.00;98202.13;5061157;28;20056;-71
2022/12/01 05:11:11;;;;;;;20.70;11.68;;;4.40;99.90;;;3.44;100.00;98203.88;5039619;28;20049;-70
2022/12/01 05:13:40;;;;;;;23.10;11.68;;;4.30;99.90;;;3.41;100.00;98203.06;5043320;28;20059;-71
2022/12/01 05:16:09;;;;;;;19.42;10.50;;;4.30;99.90;;;3.53;100.00;98203.00;5041644;28;20056;-72
2022/12/01 05:18:36;;;;;;;17.55;11.20;;;4.40;99.90;;;3.48;100.00;98203.00;5043671;28;20433;-71
2022/12/01 05:21:05;;;;;;;23.23;11.73;;;4.40;99.90;;;3.51;100.00;98203.00;5044582;28;20402;-71
2022/12/01 05:23:35;;;;;;;22.67;13.00;;;4.40;99.90;;;3.44;100.00;98200.47;5039134;28;20498;-71
2022/12/01 05:26:04;;;;;;;20.40;12.05;;;4.30;99.90;;;3.39;100.00;98203.03;5044069;28;20076;-70
2022/12/01 05:28:32;;;;;;;22.55;13.90;;;4.30;99.90;;;3.31;100.00;98199.69;5043885;28;20064;-71
2022/12/01 05:30:59;;;;;;;20.88;11.63;;;4.20;99.90;;;3.40;100.00;98212.47;5041985;28;20052;-70
2022/12/01 05:33:27;;;;;;;22.70;13.77;;;4.30;99.90;;;3.30;100.00;98203.94;5044038;28;20044;-70
2022/12/01 05:35:55;;;;;;;26.75;15.25;;;4.20;99.90;;;3.18;100.00;98209.09;5044265;28;20398;-70
2022/12/01 05:38:21;;;;;;;22.42;12.32;;;4.10;99.90;;;3.20;100.00;98215.09;5043512;28;20041;-71
2022/12/01 05:40:53;;;;;;;27.52;15.52;;;4.20;99.90;;;3.26;100.00;98203.94;5043429;28;20049;-71
2022/12/01 05:43:22;;;;;;;23.95;13.35;;;4.20;99.90;;;3.26;100.00;98206.50;5041350;28;21635;-71
2022/12/01 05:45:56;;;;;;;24.20;13.55;;;4.20;99.90;;;3.21;100.00;98208.25;5041852;28;20084;-71
2022/12/01 05:48:24;;;;;;;24.17;12.45;;;4.20;99.90;;;3.24;100.00;98206.53;5045332;28;20048;-71
2022/12/01 05:50:51;;;;;;;25.30;14.20;;;4.20;99.90;;;3.10;100.00;98208.28;5042885;28;20063;-71
2022/12/01 05:53:18;;;;;;;25.25;14.48;;;4.10;99.90;;;3.24;100.00;98209.09;5045053;28;20534;-71
2022/12/01 05:55:45;;;;;;;23.23;14.52;;;4.10;99.90;;;3.18;100.00;98210.84;5046014;28;20044;-71
2022/12/01 05:58:12;;;;;;;30.00;15.73;;;4.10;99.90;;;3.15;100.00;98209.13;5045029;28;20060;-71
2022/12/01 06:00:39;;;;;;;27.48;14.45;;;4.00;99.90;;;3.21;100.00;98214.22;5046662;28;20044;-71
2022/12/01 06:03:12;;;;;;;28.40;14.63;;;4.10;99.90;;;3.13;100.00;98208.28;5060401;28;20067;-71
2022/12/01 06:05:39;;;;;;;23.48;13.48;;;4.10;99.90;;;3.20;100.00;98211.69;5045874;28;20055;-71
2022/12/01 06:08:07;;;;;;;25.20;15.27;;;4.20;99.90;;;3.19;100.00;98207.41;5051669;28;20063;-71
2022/12/01 06:10:34;;;;;;;20.83;13.82;;;4.10;99.90;;;3.22;100.00;98207.41;5044368;28;20136;-70
2022/12/01 06:13:01;;;;;;;20.85;13.35;;;4.10;99.90;;;3.24;100.00;98208.22;5047663;28;20771;-71
2022/12/01 06:15:28;;;;;;;25.10;15.02;;;4.20;99.90;;;3.19;100.00;98212.53;5047544;28;20053;-71
2022/12/01 06:17:58;;;;;;;25.67;14.38;;;4.20;99.90;;;3.24;100.00;98208.22;5044469;28;20053;-70
2022/12/01 06:20:25;;;;;;;29.02;17.08;;;4.20;99.90;;;3.19;100.00;98210.81;5038714;28;20052;-70
2022/12/01 06:22:52;;;;;;;32.78;16.92;;;4.10;99.90;;;3.09;100.00;98215.13;5046418;28;20131;-71
2022/12/01 06:25:19;;;;;;;29.90;17.35;;;4.10;99.90;;;3.06;100.00;98220.25;5046013;28;20429;-70
2022/12/01 06:27:46;;;;;;;31.88;17.42;;;4.10;99.90;;;3.15;100.00;98221.97;5046791;28;20060;-71
2022/12/01 06:30:13;;;;;;;30.33;16.40;;;4.10;99.90;;;3.14;100.00;98212.53;5043935;28;20048;-71
2022/12/01 06:32:40;;;;;;;25.70;15.05;;;4.10;99.90;;;3.19;100.00;98220.22;5047133;28;20048;-70
2022/12/01 06:35:07;;;;;;;30.80;17.27;;;4.10;99.90;;;3.11;100.00;98222.81;5047255;28;20478;-71
2022/12/01 06:37:34;;;;;;;30.55;16.52;;;4.00;99.90;;;3.09;100.00;98225.38;5048623;28;20125;-71
2022/12/01 06:40:01;;;;;;;35.58;18.65;;;4.00;99.90;;;3.06;100.00;98232.25;5046278;28;20052;-70
2022/12/01 06:42:30;;;;;;;26.95;16.38;;;4.00;99.90;;;3.07;100.00;98234.78;5045746;28;20053;-71
2022/12/01 06:44:57;;;;;;;35.28;19.00;;;4.00;99.90;;;3.11;100.00;98228.78;5058680;28;20698;-72
2022/12/01 06:47:24;;;;;;;31.40;17.88;;;4.10;99.90;;;3.11;100.00;98227.94;5047438;28;20053;-71
2022/12/01 06:49:50;;;;;;;32.63;17.25;;;4.10;99.90;;;3.03;100.00;98227.94;5043210;28;20521;-70
2022/12/01 06:52:18;;;;;;;35.42;17.83;;;4.00;99.90;;;3.01;100.00;98233.94;5043177;28;20457;-71
2022/12/01 06:54:45;;;;;;;32.08;17.38;;;4.00;99.90;;;3.06;100.00;98240.78;5041592;28;20378;-70
2022/12/01 06:57:12;;;;;;;29.83;17.27;;;4.00;99.90;;;3.15;100.00;98245.03;5045324;28;20056;-70
2022/12/01 06:59:39;;;;;;;32.95;18.13;;;4.10;99.90;;;3.06;100.00;98234.81;5046070;28;20098;-71
2022/12/01 07:02:09;;;;;;;28.98;16.05;;;4.00;99.90;;;3.05;100.00;98231.34;5041504;28;20172;-71
2022/12/01 07:04:36;;;;;;;31.63;17.65;;;4.10;99.90;;;3.06;100.00;98237.38;5041026;28;20118;-71
2022/12/01 07:07:05;;;;;;;34.25;18.85;;;4.10;99.90;;;3.12;100.00;98243.34;5046586;28;20049;-71
2022/12/01 07:09:32;;;;;;;33.05;17.90;;;4.10;99.90;;;3.10;100.00;98246.75;5046762;28;20056;-71
2022/12/01 07:11:59;;;;;;;34.53;18.50;;;4.00;99.90;;;3.09;100.00;98245.03;5043774;28;20051;-71
2022/12/01 07:14:26;;;;;;;30.20;17.08;;;4.00;99.90;;;3.01;100.00;98246.75;5044244;28;20053;-71
2022/12/01 07:16:53;;;;;;;37.78;19.58;;;4.00;99.90;;;2.92;100.00;98248.50;5044948;28;20067;-71
2022/12/01 07:19:21;;;;;;;35.35;19.23;;;3.90;99.90;;;2.87;100.00;98239.97;5044613;28;20044;-70
2022/12/01 07:21:47;;;;;;;34.22;19.00;;;3.80;99.90;;;2.94;100.00;98248.47;5061812;28;20062;-71
2022/12/01 07:24:15;;;;;;;32.80;18.45;;;3.90;99.90;;;3.00;100.00;98250.19;5047425;28;20068;-71
2022/12/01 07:26:42;;;;;;;37.17;20.70;;;3.90;99.90;;;2.90;100.00;98250.22;5058166;28;20083;-70
2022/12/01 07:29:10;;;;;;;37.47;21.00;;;3.90;99.90;;;2.86;100.00;98257.91;5044367;28;20041;-71
2022/12/01 07:31:37;;;;;;;38.20;20.85;;;3.90;99.90;;;2.87;100.00;98260.47;5055831;28;20049;-71
2022/12/01 07:34:05;;;;;;;31.15;17.92;;;3.90;99.90;;;2.96;100.00;98259.59;5042806;28;20055;-71
2022/12/01 07:36:34;;;;;;;30.70;18.88;;;3.90;99.90;;;3.02;100.00;98262.16;5041895;28;20090;-71
2022/12/01 07:39:06;;;;;;;36.85;19.90;;;4.00;99.90;;;2.97;100.00;98274.13;5045023;28;20447;-71
2022/12/01 07:41:34;;;;;;;36.90;21.00;;;4.00;99.90;;;3.06;100.00;98269.00;5045253;28;20148;-71
2022/12/01 07:44:01;;;;;;;34.42;18.10;;;4.00;99.90;;;3.12;100.00;98270.69;5043892;28;20049;-70
2022/12/01 07:46:28;;;;;;;35.85;19.55;;;4.10;99.90;;;3.02;100.00;98272.41;5056933;28;20061;-71
2022/12/01 07:48:56;;;;;;;41.60;22.20;;;4.00;99.90;;;2.89;100.00;98274.13;5045796;28;20051;-71
2022/12/01 07:51:24;;;;;;;45.38;22.70;;;3.90;99.90;;;2.87;100.00;98275.88;5041023;28;20067;-71
2022/12/01 07:53:53;;;;;;;32.78;19.50;;;3.90;99.90;;;2.96;100.00;98269.84;5054064;28;20055;-70
2022/12/01 07:56:21;;;;;;;48.40;22.23;;;4.00;99.90;;;2.90;100.00;98272.44;5052289;28;20136;-71
2022/12/01 07:58:48;;;;;;;35.35;19.70;;;4.00;99.90;;;2.98;100.00;98280.13;5039656;28;20159;-70
2022/12/01 08:01:19;;;;;;;37.55;20.90;;;4.00;99.90;;;3.04;100.00;98275.84;5041059;28;20051;-71
2022/12/01 08:03:52;;;;;;;42.92;21.90;;;4.00;99.90;;;2.95;100.00;98280.13;5037911;28;20049;-71
2022/12/01 08:06:20;;;;;;;47.10;23.25;;;3.90;99.90;;;2.87;100.00;98285.25;5043647;28;20067;-71
2022/12/01 08:08:48;;;;;;;42.63;21.58;;;3.90;99.90;;;2.93;100.00;98280.97;5045044;28;20049;-71
2022/12/01 08:11:22;;;;;;;40.83;22.42;;;3.90;99.90;;;2.99;100.00;98284.38;5044018;28;20048;-71
2022/12/01 08:13:51;;;;;;;37.25;20.00;;;3.90;99.90;;;2.90;100.00;98283.53;5041837;28;20087;-71
2022/12/01 08:16:20;;;;;;;37.42;21.48;;;3.90;99.90;;;2.87;100.00;98290.38;5040579;28;20041;-69
2022/12/01 08:18:48;;;;;;;31.83;19.25;;;3.90;99.90;;;2.87;100.00;98298.06;5044811;28;20052;-71
2022/12/01 08:21:19;;;;;;;35.80;21.17;;;4.00;99.90;;;2.84;100.00;98296.34;5036743;28;20060;-70
2022/12/01 08:23:46;;;;;;;37.67;21.13;;;3.90;99.90;;;2.87;100.00;98293.81;5042037;28;20050;-71
2022/12/01 08:26:17;;;;;;;37.17;20.90;;;3.90;99.90;;;2.83;100.00;98302.34;5041833;28;20698;-71
2022/12/01 08:28:44;;;;;;;45.10;22.50;;;3.80;99.90;;;2.79;100.00;98299.78;5057307;28;21750;-70
2022/12/01 08:31:27;;;;;;;39.20;21.35;;;3.80;99.90;;;2.82;100.00;98308.31;5042767;28;20041;-71
2022/12/01 08:33:57;;;;;;;41.10;22.73;;;3.80;99.90;;;2.82;100.00;98302.34;5043839;28;20472;-70
2022/12/01 08:36:25;;;;;;;42.33;21.70;;;3.80;99.90;;;2.87;100.00;98303.19;5040611;28;20080;-69
2022/12/01 08:38:54;;;;;;;42.00;22.65;;;3.90;99.90;;;2.90;100.00;98295.53;5041723;28;20083;-70
2022/12/01 08:41:23;;;;;;;37.08;22.63;;;3.90;99.90;;;2.93;100.00;98301.47;5056451;28;20071;-70
2022/12/01 08:43:58;;;;;;;47.58;25.17;;;4.00;99.90;;;2.80;100.00;98302.34;5041319;28;20053;-70
2022/12/01 08:46:33;;;;;;;41.38;23.55;;;3.90;99.90;;;2.77;100.00;98309.19;5043469;28;20053;-71
2022/12/01 08:49:04;;;;;;;46.20;25.52;;;3.80;99.90;;;2.76;100.00;98310.91;5044338;28;20103;-71
2022/12/01 08:51:32;;;;;;;52.97;24.60;;;3.80;99.90;;;2.91;100.00;98307.47;5060112;28;20045;-71
2022/12/01 08:54:00;;;;;;;38.45;22.40;;;3.90;99.90;;;2.93;100.00;98309.19;5056098;28;20045;-70
2022/12/01 08:56:35;;;;;;;43.10;24.58;;;3.90;99.90;;;2.86;100.00;98311.75;5045903;28;20136;-71
2022/12/01 08:59:03;;;;;;;48.72;25.77;;;3.90;99.90;;;2.75;100.00;98319.44;5042736;28;20053;-71
2022/12/01 09:01:31;;;;;;;47.10;26.23;;;3.80;99.90;;;2.74;100.00;98312.59;5043698;28;20060;-71
2022/12/01 09:04:09;;;;;;;50.25;27.40;;;3.80;99.90;;;2.67;100.00;98314.31;5042588;28;20121;-71
2022/12/01 09:06:43;;;;;;;51.15;26.70;;;3.70;99.90;;;2.77;100.00;98310.03;5040122;28;20057;-70
2022/12/01 09:09:15;;;;;;;45.25;24.52;;;3.80;99.90;;;2.81;100.00;98313.47;5042852;28;20063;-72
2022/12/01 09:11:42;;;;;;;43.53;25.17;;;3.80;99.90;;;2.83;100.00;98309.16;5041414;28;20049;-70
2022/12/01 09:14:15;;;;;;;36.60;23.00;;;3.90;99.90;;;3.14;100.00;98321.13;5040293;28;20075;-71
2022/12/01 09:16:44;;;;;;;42.58;23.98;;;4.00;99.90;;;3.11;100.00;98321.13;5052149;28;20072;-70
2022/12/01 09:19:12;;;;;;;50.22;26.38;;;4.10;99.90;;;2.85;100.00;98321.16;5041006;28;20423;-71
2022/12/01 09:21:42;;;;;;;46.17;24.75;;;3.90;99.90;;;2.77;100.00;98319.44;5039402;28;20057;-71
2022/12/01 09:24:11;;;;;;;42.97;23.40;;;3.90;99.90;;;2.84;100.00;98327.13;5042189;28;20637;-71
2022/12/01 09:26:39;;;;;;;42.33;23.25;;;3.90;99.90;;;3.00;100.00;98327.13;5056717;28;20045;-71
2022/12/01 09:29:10;;;;;;;41.47;23.90;;;4.00;99.90;;;3.04;100.00;98331.41;5041460;28;20180;-69
2022/12/01 09:31:37;;;;;;;32.85;21.33;;;4.10;99.90;;;3.04;100.00;98326.28;5046969;28;20056;-71
2022/12/01 09:34:06;;;;;;;44.25;23.67;;;4.20;99.90;;;3.09;100.00;98339.94;5046658;28;20053;-69
2022/12/01 09:36:35;;;;;;;39.00;23.23;;;4.10;99.90;;;2.95;100.00;98344.25;5058938;28;20056;-70
2022/12/01 09:39:05;;;;;;;37.60;22.02;;;4.10;99.90;;;3.01;100.00;98332.28;5045927;28;20044;-71
2022/12/01 09:42:00;;;;;;;33.20;19.20;;;4.00;99.90;;;3.01;100.00;98344.22;5046169;28;20140;-71
2022/12/01 09:45:01;;;;;;;39.28;20.33;;;4.10;99.90;;;2.84;100.00;98332.25;5041487;28;20049;-70
2022/12/01 09:47:33;;;;;;;39.13;22.35;;;4.10;99.90;;;2.78;100.00;98333.97;5039448;28;20060;-70
2022/12/01 09:50:12;;;;;;;40.35;22.13;;;3.90;99.90;;;2.76;100.00;98335.66;5044680;28;20045;-69
2022/12/01 09:52:48;;;;;;;40.15;21.90;;;3.90;99.90;;;2.64;100.00;98337.34;5046059;28;20059;-70
2022/12/01 09:55:18;;;;;;;37.65;20.63;;;3.80;99.90;;;2.77;100.00;98332.25;5042602;28;20136;-71
2022/12/01 09:57:48;;;;;;;37.47;20.45;;;3.90;99.90;;;2.80;100.00;98329.69;5045953;28;20048;-71
2022/12/01 10:00:20;;;;;;;35.30;20.35;;;3.90;99.90;;;2.66;100.00;98329.69;5041590;28;20052;-71
2022/12/01 10:03:05;;;;;;;32.90;19.27;;;3.80;99.90;;;2.86;100.00;98327.13;5042854;28;20152;-70
2022/12/01 10:05:48;;;;;;;37.85;19.95;;;3.90;99.90;;;2.78;100.00;98327.13;5045902;28;20067;-70
2022/12/01 10:08:40;;;;;;;33.95;18.17;;;3.90;99.90;;;2.76;100.00;98320.28;5043212;28;20114;-71
2022/12/01 10:11:34;;;;;;;31.52;19.33;;;3.90;99.90;;;2.78;100.00;98321.97;5041985;28;20433;-70
2022/12/01 10:14:03;;;;;;;29.88;17.73;;;3.90;99.90;;;3.06;100.00;98315.16;5045131;28;20075;-71
2022/12/01 10:16:48;;;;;;;28.30;17.88;;;4.10;99.90;;;3.02;100.00;98315.16;5042574;28;20135;-72
2022/12/01 10:19:51;;;;;;;30.27;18.05;;;4.10;99.90;;;3.08;100.00;98316.03;5054265;28;20422;-70
2022/12/01 10:22:51;;;;;;;30.92;18.30;;;4.30;99.90;;;3.16;100.00;98308.31;5043396;28;20283;-71
2022/12/01 10:25:25;;;;;;;30.17;17.23;;;4.30;99.90;;;2.96;100.00;98310.88;5045323;28;20064;-71
2022/12/01 10:28:30;;;;;;;31.60;18.10;;;4.30;99.90;;;2.89;100.00;98304.03;5043807;28;20155;-71
2022/12/01 10:31:14;;;;;;;32.65;17.30;;;4.20;99.90;;;2.95;100.00;98304.06;5045161;28;20766;-71
2022/12/01 10:33:59;;;;;;;34.75;19.13;;;4.20;99.90;;;2.83;100.00;98304.91;5043403;28;20139;-71
2022/12/01 10:36:27;;;;;;;35.75;19.67;;;4.00;99.90;;;2.77;100.00;98306.63;5060773;28;20049;-71
2022/12/01 10:38:54;;;;;;;35.42;19.83;;;4.00;99.90;;;2.87;100.00;98306.63;5041437;28;20106;-71